Kedves Pilóták, Oktatók, Növendékek!

Az alábbi menüpontban szeretnénk összefoglalni néhány fontos és hasznos információt, linket, amely segíthet a repülések megtervezésében.

Ha bármilyen javaslatod van a tartalommal kapcsolatban, kérlek Ez az e-mail-cím a szpemrobotok elleni védelem alatt áll. Megtekintéséhez engedélyeznie kell a JavaScript használatát.meg nekünk.

 

Jó leszállást!

Repüléssel kapcsolatos hírek

2021. október 23.

Felhőkép 

Felhőkép

Széltérkép

Széltérkép

Győr-Pér Repülőtér

Élő webkamera kép

 Nagyobb kép

Győr-Pér Repülőtér

[Source: ADDS]
METAR
LHPR 230515Z AUTO 28009KT CAVOK 08/02 Q1024 NOSIG =
LHPR 230515Z 2306/2315 29012KT CAVOK TEMPO 2309/2312 SCT040
TAF
LHPR 230515Z 2306/2315 29012KT CAVOK TEMPO 2309/2312 SCT040 =
SR / SS: 05:19 / 15:46 UTC (Napkelte / Napnyugta 2021-10-23)

Kapcsolat

Telephely:     9099 Pér, Repülõtér

Klubhelyiség: 9021 Gyõr, Városház tér 3.

E-mail: info@aeroclub-gyor.hu

Telefon: 06-20-777-9106

Adószám: 19113832-2-08

JSN Metro template designed by JoomlaShine.com